Fort Defiance, Virginia
Current Conditions -  °F | °C
As of 9:55 AM on Sunday 21 Dec 2014 (Local Time) from KSHD Reporting Station
Overcast Overcast  
Wind Chill: 34°   Ceiling: 4800
Heat Index: 34°   Visibility: 10mi
Dew Point: 26°   Wind: 0mph
Humidity: 72%   Direction: NA
Pressure: 30.32"   Gusts: NA
Location:  38.24°N, 78.97°W
Report Text: KSHD 211455Z AUTO 00000KT 10SM OVC048 01/M03 A3032 RMK AO2 T00121033
Loading
Personal Weather Stations






























Interactive Weather Map New forecast layout! Learn more

10-Day Weather Forecast

Advertisements
Track Severe Weather on mobile